createdAt,value
2023-01-25T00:01:14.993Z,103239.05
2023-01-25T00:03:27.967Z,103244.27
2023-01-25T00:05:40.942Z,103243.95
2023-01-25T00:07:53.735Z,103249.39
2023-01-25T00:10:09.801Z,103247.91
2023-01-25T00:12:23.632Z,103239.48
2023-01-25T00:14:36.993Z,103237.54
2023-01-25T00:16:49.876Z,103236.07
2023-01-25T00:19:02.655Z,103232.73
2023-01-25T00:21:23.803Z,103232.58
2023-01-25T00:23:41.408Z,103229.55
2023-01-25T00:25:59.685Z,103230.44
2023-01-25T00:28:12.912Z,103229.23
2023-01-25T00:30:29.078Z,103227.63
2023-01-25T00:33:06.367Z,103223.34
2023-01-25T00:35:19.367Z,103229.55
2023-01-25T00:37:39.922Z,103225.19
2023-01-25T00:39:53.017Z,103222.05
2023-01-25T00:42:06.503Z,103228.57
2023-01-25T00:44:20.101Z,103232.23
2023-01-25T00:46:33.080Z,103229.23
2023-01-25T00:48:46.071Z,103235.27
2023-01-25T00:51:03.718Z,103243.11
2023-01-25T00:53:17.438Z,103241.78
2023-01-25T00:55:30.800Z,103239.13
2023-01-25T00:57:45.971Z,103241.04
2023-01-25T01:00:00.245Z,103235.96
2023-01-25T01:02:13.242Z,103238.30
2023-01-25T01:04:28.239Z,103236.77
2023-01-25T01:06:42.776Z,103237.99
2023-01-25T01:08:55.471Z,103229.96
2023-01-25T01:11:12.231Z,103223.55
2023-01-25T01:13:25.201Z,103222.96
2023-01-25T01:15:42.095Z,103225.33
2023-01-25T01:17:55.041Z,103231.70
2023-01-25T01:20:08.624Z,103225.39
2023-01-25T01:22:21.740Z,103228.14
2023-01-25T01:24:35.255Z,103224.59
2023-01-25T01:26:48.770Z,103224.30
2023-01-25T01:29:02.041Z,103221.90
2023-01-25T01:31:18.884Z,103221.39
2023-01-25T01:33:38.410Z,103220.61
2023-01-25T01:35:51.845Z,103211.25
2023-01-25T01:38:06.063Z,103214.55
2023-01-25T01:40:21.337Z,103209.34
2023-01-25T01:42:35.370Z,103206.66
2023-01-25T01:44:54.314Z,103210.61
2023-01-25T01:47:08.978Z,103215.48
2023-01-25T01:49:27.297Z,103208.35
2023-01-25T01:51:51.523Z,103218.12
2023-01-25T01:54:12.018Z,103207.84
2023-01-25T01:56:28.956Z,103206.52
2023-01-25T01:58:45.194Z,103213.70
2023-01-25T02:00:58.421Z,103215.99
2023-01-25T02:03:14.864Z,103211.39
2023-01-25T02:05:39.454Z,103211.63
2023-01-25T02:07:57.127Z,103201.40
2023-01-25T02:10:13.121Z,103193.48
2023-01-25T02:12:30.032Z,103192.06
2023-01-25T02:14:48.448Z,103202.09
2023-01-25T02:17:07.250Z,103206.86
2023-01-25T02:19:42.245Z,103214.20
2023-01-25T02:22:01.453Z,103210.05
2023-01-25T02:24:22.055Z,103211.28
2023-01-25T02:26:34.999Z,103215.34
2023-01-25T02:28:52.646Z,103216.36
2023-01-25T02:31:11.967Z,103214.00
2023-01-25T02:33:25.804Z,103221.39
2023-01-25T02:35:52.417Z,103225.45
2023-01-25T02:38:06.757Z,103225.39
2023-01-25T02:40:20.687Z,103226.34
2023-01-25T02:42:36.793Z,103229.41
2023-01-25T02:44:51.886Z,103225.52
2023-01-25T02:47:05.337Z,103228.54
2023-01-25T02:49:18.867Z,103229.14
2023-01-25T02:51:37.142Z,103223.67
2023-01-25T02:53:50.868Z,103217.60
2023-01-25T02:56:06.162Z,103220.61
2023-01-25T02:58:22.401Z,103225.34
2023-01-25T03:00:35.726Z,103218.52
2023-01-25T03:02:49.523Z,103217.28
2023-01-25T03:05:02.607Z,103214.79
2023-01-25T03:07:15.780Z,103214.57
2023-01-25T03:09:30.537Z,103215.84
2023-01-25T03:11:45.613Z,103222.66
2023-01-25T03:13:58.690Z,103231.30
2023-01-25T03:16:13.657Z,103230.91
2023-01-25T03:18:28.399Z,103241.14
2023-01-25T03:20:41.775Z,103251.80
2023-01-25T03:22:55.206Z,103256.28
2023-01-25T03:25:08.577Z,103260.98
2023-01-25T03:27:22.106Z,103261.32
2023-01-25T03:29:56.463Z,103256.93
2023-01-25T03:32:12.066Z,103248.48
2023-01-25T03:34:25.751Z,103244.58
2023-01-25T03:36:39.576Z,103245.73
2023-01-25T03:38:52.940Z,103252.63
2023-01-25T03:41:06.508Z,103254.25
2023-01-25T03:43:21.536Z,103252.71
2023-01-25T03:45:35.204Z,103250.02
2023-01-25T03:47:48.528Z,103254.67
2023-01-25T03:50:01.524Z,103267.18
2023-01-25T03:52:14.925Z,103272.23
2023-01-25T03:54:28.435Z,103269.13
2023-01-25T03:56:41.842Z,103265.52
2023-01-25T03:59:03.082Z,103264.23
2023-01-25T04:01:17.143Z,103263.01
2023-01-25T04:03:31.409Z,103257.22
2023-01-25T04:05:45.352Z,103263.30
2023-01-25T04:07:58.508Z,103261.61
2023-01-25T04:10:19.512Z,103262.23
2023-01-25T04:12:34.238Z,103259.96
2023-01-25T04:14:47.277Z,103252.98
2023-01-25T04:17:06.537Z,103255.58
2023-01-25T04:19:24.318Z,103261.58
2023-01-25T04:21:37.832Z,103261.48
2023-01-25T04:23:51.120Z,103263.45
2023-01-25T04:26:07.251Z,103267.16
2023-01-25T04:28:20.575Z,103265.48
2023-01-25T04:30:34.669Z,103265.20
2023-01-25T04:32:47.905Z,103264.35
2023-01-25T04:35:13.490Z,103263.80
2023-01-25T04:37:26.491Z,103261.78
2023-01-25T04:39:43.213Z,103254.04
2023-01-25T04:41:59.389Z,103260.86
2023-01-25T04:44:12.669Z,103260.80
2023-01-25T04:46:27.177Z,103261.40
2023-01-25T04:48:41.145Z,103264.80
2023-01-25T04:50:56.795Z,103268.20
2023-01-25T04:53:10.527Z,103267.21
2023-01-25T04:55:24.527Z,103265.41
2023-01-25T04:57:38.304Z,103268.95
2023-01-25T04:59:54.848Z,103268.19
2023-01-25T05:02:08.549Z,103273.29
2023-01-25T05:04:21.683Z,103274.38
2023-01-25T05:06:36.031Z,103280.48
2023-01-25T05:08:49.115Z,103280.42
2023-01-25T05:11:02.413Z,103279.56
2023-01-25T05:13:24.270Z,103284.10
2023-01-25T05:15:44.375Z,103285.19
2023-01-25T05:17:57.682Z,103275.43
2023-01-25T05:20:15.653Z,103276.57
2023-01-25T05:22:28.460Z,103279.35
2023-01-25T05:24:44.140Z,103280.71
2023-01-25T05:27:09.251Z,103279.40
2023-01-25T05:29:42.166Z,103288.52
2023-01-25T05:31:55.164Z,103290.81
2023-01-25T05:34:07.905Z,103292.22
2023-01-25T05:36:20.669Z,103293.42
2023-01-25T05:38:34.554Z,103296.75
2023-01-25T05:40:47.803Z,103302.48
2023-01-25T05:43:04.325Z,103296.91
2023-01-25T05:45:19.255Z,103299.91
2023-01-25T05:47:32.627Z,103306.12
2023-01-25T05:49:45.583Z,103308.69
2023-01-25T05:52:04.328Z,103309.06
2023-01-25T05:54:19.436Z,103314.79
2023-01-25T05:56:38.154Z,103318.88
2023-01-25T05:58:50.785Z,103315.29
2023-01-25T06:01:05.716Z,103313.33
2023-01-25T06:03:24.606Z,103316.54
2023-01-25T06:05:37.306Z,103319.92
2023-01-25T06:07:51.182Z,103315.73
2023-01-25T06:10:05.448Z,103316.81
2023-01-25T06:12:17.943Z,103318.67
2023-01-25T06:14:30.455Z,103318.06
2023-01-25T06:16:44.068Z,103314.02
2023-01-25T06:19:29.233Z,103314.14
2023-01-25T06:21:56.334Z,103317.11
2023-01-25T06:24:09.867Z,103316.66
2023-01-25T06:26:22.918Z,103321.63
2023-01-25T06:28:40.975Z,103326.75
2023-01-25T06:30:53.640Z,103328.27
2023-01-25T06:33:07.151Z,103330.98
2023-01-25T06:35:20.492Z,103324.89
2023-01-25T06:37:33.355Z,103322.77
2023-01-25T06:39:46.381Z,103328.07
2023-01-25T06:41:59.198Z,103335.86
2023-01-25T06:44:11.881Z,103333.95
2023-01-25T06:46:25.056Z,103336.57
2023-01-25T06:48:38.680Z,103335.27
2023-01-25T06:50:56.379Z,103333.55
2023-01-25T06:53:08.801Z,103335.68
2023-01-25T06:55:21.437Z,103332.80
2023-01-25T06:57:33.877Z,103335.42
2023-01-25T06:59:46.621Z,103338.70
2023-01-25T07:01:59.087Z,103339.56
2023-01-25T07:04:12.941Z,103340.31
2023-01-25T07:06:25.892Z,103339.55
2023-01-25T07:08:38.873Z,103337.21
2023-01-25T07:11:02.197Z,103336.56
2023-01-25T07:13:15.761Z,103339.56
2023-01-25T07:15:28.310Z,103334.86
2023-01-25T07:17:41.039Z,103336.13
2023-01-25T07:19:53.733Z,103333.57
2023-01-25T07:22:06.652Z,103329.36
2023-01-25T07:24:21.258Z,103329.23
2023-01-25T07:26:34.909Z,103322.94
2023-01-25T07:28:48.915Z,103316.66
2023-01-25T07:31:07.117Z,103314.03
2023-01-25T07:33:20.637Z,103311.05
2023-01-25T07:35:34.215Z,103317.73
2023-01-25T07:37:47.434Z,103321.60
2023-01-25T07:40:00.148Z,103329.95
2023-01-25T07:42:13.064Z,103335.42
2023-01-25T07:44:33.664Z,103342.77
2023-01-25T07:47:01.638Z,103341.57
2023-01-25T07:49:14.420Z,103344.70
2023-01-25T07:51:28.922Z,103352.28
2023-01-25T07:53:42.147Z,103356.40
2023-01-25T07:55:55.124Z,103360.47
2023-01-25T07:58:08.357Z,103363.94
2023-01-25T08:00:24.017Z,103358.60
2023-01-25T08:02:36.834Z,103349.59
2023-01-25T08:04:49.978Z,103349.70
2023-01-25T08:07:02.991Z,103345.18
2023-01-25T08:09:20.900Z,103342.78
2023-01-25T08:11:35.165Z,103342.61
2023-01-25T08:13:50.204Z,103340.50
2023-01-25T08:16:03.173Z,103345.44
2023-01-25T08:18:16.165Z,103351.85
2023-01-25T08:20:28.940Z,103353.41
2023-01-25T08:22:42.304Z,103365.67
2023-01-25T08:24:55.311Z,103369.81
2023-01-25T08:27:08.330Z,103375.30
2023-01-25T08:29:22.596Z,103371.33
2023-01-25T08:31:37.532Z,103361.05
2023-01-25T08:33:50.992Z,103357.52
2023-01-25T08:36:07.168Z,103360.08
2023-01-25T08:38:22.027Z,103359.86
2023-01-25T08:40:38.252Z,103361.83
2023-01-25T08:42:51.641Z,103369.41
2023-01-25T08:45:04.859Z,103363.20
2023-01-25T08:47:18.702Z,103362.48
2023-01-25T08:49:32.271Z,103358.46
2023-01-25T08:51:45.297Z,103358.41
2023-01-25T08:54:02.868Z,103355.38
2023-01-25T08:56:19.116Z,103356.10
2023-01-25T08:58:32.835Z,103358.23
2023-01-25T09:00:46.813Z,103359.08
2023-01-25T09:02:59.613Z,103363.34
2023-01-25T09:05:13.429Z,103360.24
2023-01-25T09:07:26.738Z,103360.31
2023-01-25T09:09:40.158Z,103360.98
2023-01-25T09:11:53.133Z,103360.15
2023-01-25T09:14:05.814Z,103362.27
2023-01-25T09:16:23.783Z,103362.50
2023-01-25T09:18:36.885Z,103353.68
2023-01-25T09:20:49.746Z,103355.92
2023-01-25T09:23:03.091Z,103355.86
2023-01-25T09:25:16.110Z,103355.91
2023-01-25T09:27:29.062Z,103348.98
2023-01-25T09:29:49.580Z,103352.63
2023-01-25T09:32:13.468Z,103356.29
2023-01-25T09:34:37.939Z,103354.65
2023-01-25T09:36:50.704Z,103351.70
2023-01-25T09:39:03.636Z,103351.41
2023-01-25T09:41:38.506Z,103355.98
2023-01-25T09:44:14.578Z,103363.23
2023-01-25T09:46:38.706Z,103361.05
2023-01-25T09:49:07.422Z,103361.83
2023-01-25T09:51:29.901Z,103365.14
2023-01-25T09:53:44.837Z,103367.98
2023-01-25T09:56:00.767Z,103367.52
2023-01-25T09:58:23.523Z,103358.71
2023-01-25T10:00:41.032Z,103353.39
2023-01-25T10:02:58.006Z,103352.84
2023-01-25T10:05:16.869Z,103355.54
2023-01-25T10:07:34.130Z,103351.56
2023-01-25T10:09:53.125Z,103350.86
2023-01-25T10:12:16.273Z,103356.98
2023-01-25T10:14:29.405Z,103357.20
2023-01-25T10:16:49.973Z,103357.54
2023-01-25T10:19:15.796Z,103354.16
2023-01-25T10:21:36.717Z,103354.86
2023-01-25T10:24:09.073Z,103363.14
2023-01-25T10:26:30.329Z,103364.95
2023-01-25T10:28:49.706Z,103367.67
2023-01-25T10:31:08.297Z,103369.48
2023-01-25T10:33:23.599Z,103376.44
2023-01-25T10:35:44.237Z,103376.48
2023-01-25T10:38:02.408Z,103370.83
2023-01-25T10:40:22.785Z,103368.16
2023-01-25T10:42:42.430Z,103367.83
2023-01-25T10:44:55.101Z,103363.80
2023-01-25T10:47:20.504Z,103360.80
2023-01-25T10:49:39.711Z,103357.52
2023-01-25T10:51:52.461Z,103354.74
2023-01-25T10:54:08.672Z,103353.11
2023-01-25T10:56:27.929Z,103352.14
2023-01-25T10:58:42.991Z,103356.34
2023-01-25T11:00:56.940Z,103355.15
2023-01-25T11:03:23.464Z,103360.43
2023-01-25T11:05:39.017Z,103359.22
2023-01-25T11:07:52.201Z,103359.81
2023-01-25T11:10:05.208Z,103364.23
2023-01-25T11:12:27.024Z,103363.96
2023-01-25T11:14:40.658Z,103362.83
2023-01-25T11:16:54.123Z,103359.77
2023-01-25T11:19:27.077Z,103357.21
2023-01-25T11:21:40.222Z,103355.75
2023-01-25T11:24:07.540Z,103358.58
2023-01-25T11:26:22.498Z,103357.04
2023-01-25T11:28:35.241Z,103363.30
2023-01-25T11:30:48.846Z,103363.64
2023-01-25T11:33:03.921Z,103363.16
2023-01-25T11:35:32.082Z,103365.77
2023-01-25T11:38:02.810Z,103372.52
2023-01-25T11:40:24.605Z,103372.41
2023-01-25T11:42:46.068Z,103373.29
2023-01-25T11:45:30.815Z,103364.08
2023-01-25T11:47:58.181Z,103361.52
2023-01-25T11:50:17.530Z,103366.14
2023-01-25T11:52:43.724Z,103369.90
2023-01-25T11:55:07.057Z,103365.49
2023-01-25T11:57:45.189Z,103360.65
2023-01-25T12:00:12.888Z,103360.27
2023-01-25T12:02:58.181Z,103360.65
2023-01-25T12:05:27.850Z,103357.55
2023-01-25T12:07:50.944Z,103351.75
2023-01-25T12:10:18.537Z,103350.98
2023-01-25T12:12:43.883Z,103355.45
2023-01-25T12:15:26.282Z,103362.97
2023-01-25T12:17:52.825Z,103364.66
2023-01-25T12:20:32.750Z,103363.30
2023-01-25T12:23:05.165Z,103359.27
2023-01-25T12:25:22.496Z,103360.95
2023-01-25T12:27:47.429Z,103360.73
2023-01-25T12:30:08.033Z,103360.67
2023-01-25T12:32:26.984Z,103361.10
2023-01-25T12:34:43.351Z,103363.23
2023-01-25T12:36:57.261Z,103356.58
2023-01-25T12:39:18.042Z,103360.18
2023-01-25T12:41:42.637Z,103361.27
2023-01-25T12:44:01.338Z,103363.45
2023-01-25T12:46:24.951Z,103359.05
2023-01-25T12:48:44.309Z,103359.77
2023-01-25T12:51:01.067Z,103362.27
2023-01-25T12:53:21.903Z,103359.31
2023-01-25T12:55:36.309Z,103356.69
2023-01-25T12:57:58.149Z,103355.34
2023-01-25T13:00:21.533Z,103347.65
2023-01-25T13:02:55.618Z,103350.59
2023-01-25T13:05:20.516Z,103351.58
2023-01-25T13:07:40.725Z,103355.34
2023-01-25T13:10:01.663Z,103353.11
2023-01-25T13:12:16.855Z,103355.55
2023-01-25T13:14:42.440Z,103363.45
2023-01-25T13:17:09.302Z,103369.65
2023-01-25T13:19:45.519Z,103370.41
2023-01-25T13:21:59.554Z,103375.64
2023-01-25T13:24:27.370Z,103378.81
2023-01-25T13:26:54.061Z,103383.27
2023-01-25T13:29:06.647Z,103381.03
2023-01-25T13:31:54.199Z,103384.03
2023-01-25T13:34:07.949Z,103382.59
2023-01-25T13:36:48.532Z,103381.45
2023-01-25T13:39:02.966Z,103388.15
2023-01-25T13:41:34.255Z,103389.72
2023-01-25T13:43:50.043Z,103394.40
2023-01-25T13:46:03.316Z,103395.81
2023-01-25T13:48:23.019Z,103399.36
2023-01-25T13:50:41.234Z,103400.89
2023-01-25T13:53:05.396Z,103401.88
2023-01-25T13:55:27.019Z,103404.38
2023-01-25T13:57:39.723Z,103410.09
2023-01-25T14:00:09.928Z,103413.85
2023-01-25T14:02:26.866Z,103412.77
2023-01-25T14:04:40.087Z,103415.98
2023-01-25T14:06:59.316Z,103418.80
2023-01-25T14:09:21.171Z,103425.88
2023-01-25T14:11:35.592Z,103428.89
2023-01-25T14:14:02.540Z,103431.89
2023-01-25T14:16:16.793Z,103438.91
2023-01-25T14:18:34.396Z,103432.85
2023-01-25T14:20:48.377Z,103429.98
2023-01-25T14:23:01.100Z,103431.05
2023-01-25T14:25:20.727Z,103430.70
2023-01-25T14:27:34.220Z,103432.94
2023-01-25T14:29:51.208Z,103438.20
2023-01-25T14:32:04.386Z,103442.34
2023-01-25T14:34:23.775Z,103443.27
2023-01-25T14:36:39.193Z,103447.85
2023-01-25T14:38:52.431Z,103445.31
2023-01-25T14:41:11.535Z,103439.23
2023-01-25T14:43:25.809Z,103434.48
2023-01-25T14:45:38.714Z,103424.23
2023-01-25T14:47:59.498Z,103433.66
2023-01-25T14:50:39.815Z,103431.45
2023-01-25T14:52:53.291Z,103429.21
2023-01-25T14:55:06.451Z,103433.95
2023-01-25T14:57:35.796Z,103435.70
2023-01-25T14:59:54.767Z,103437.98
2023-01-25T15:02:17.171Z,103439.25
2023-01-25T15:04:30.595Z,103437.80
2023-01-25T15:06:52.718Z,103437.52
2023-01-25T15:09:03.235Z,103438.71
2023-01-25T15:24:18.425Z,103439.85
2023-01-25T15:26:33.057Z,103440.46
2023-01-25T15:28:46.144Z,103440.25
2023-01-25T15:31:00.688Z,103439.02
2023-01-25T15:33:20.407Z,103441.11
2023-01-25T15:35:33.395Z,103446.42
2023-01-25T15:37:49.351Z,103446.41
2023-01-25T15:40:03.069Z,103452.94
2023-01-25T15:42:16.307Z,103454.89
2023-01-25T15:44:30.798Z,103452.86
2023-01-25T15:46:46.038Z,103452.85
2023-01-25T15:48:59.711Z,103457.67
2023-01-25T15:51:14.163Z,103458.81
2023-01-25T15:53:28.052Z,103465.67
2023-01-25T15:55:41.269Z,103472.13
2023-01-25T15:57:55.452Z,103473.55
2023-01-25T16:00:09.945Z,103476.52
2023-01-25T16:02:23.392Z,103474.44
2023-01-25T16:04:36.400Z,103477.01
2023-01-25T16:06:52.353Z,103475.04
2023-01-25T16:09:06.975Z,103470.58
2023-01-25T16:11:20.841Z,103476.77
2023-01-25T16:13:33.619Z,103474.09
2023-01-25T16:15:49.802Z,103473.88
2023-01-25T16:18:02.797Z,103471.64
2023-01-25T16:20:22.350Z,103472.20
2023-01-25T16:22:35.700Z,103475.20
2023-01-25T16:24:48.733Z,103476.72
2023-01-25T16:27:04.065Z,103486.42
2023-01-25T16:29:17.921Z,103495.85
2023-01-25T16:31:33.264Z,103506.03
2023-01-25T16:33:46.527Z,103510.50
2023-01-25T16:36:16.038Z,103516.01
2023-01-25T16:38:29.036Z,103517.00
2023-01-25T16:40:42.292Z,103519.89
2023-01-25T16:42:55.532Z,103519.14
2023-01-25T16:45:09.458Z,103520.95
2023-01-25T16:47:22.340Z,103526.61
2023-01-25T16:49:36.550Z,103523.73
2023-01-25T16:51:50.133Z,103525.67
2023-01-25T16:54:03.445Z,103522.80
2023-01-25T16:56:22.467Z,103525.30
2023-01-25T16:58:35.161Z,103529.92
2023-01-25T17:00:49.010Z,103530.84
2023-01-25T17:03:02.304Z,103526.65
2023-01-25T17:05:15.754Z,103523.44
2023-01-25T17:07:28.526Z,103522.41
2023-01-25T17:09:41.226Z,103517.23
2023-01-25T17:11:53.838Z,103517.13
2023-01-25T17:14:07.573Z,103523.41
2023-01-25T17:16:20.830Z,103520.55
2023-01-25T17:18:33.803Z,103520.34
2023-01-25T17:20:46.966Z,103517.06
2023-01-25T17:23:00.368Z,103519.90
2023-01-25T17:25:14.349Z,103520.40
2023-01-25T17:27:27.200Z,103523.77
2023-01-25T17:29:42.065Z,103525.96
2023-01-25T17:31:56.360Z,103527.45
2023-01-25T17:34:12.080Z,103529.73
2023-01-25T17:36:26.644Z,103532.41
2023-01-25T17:38:39.438Z,103528.11
2023-01-25T17:40:51.991Z,103525.89
2023-01-25T17:43:05.332Z,103525.20
2023-01-25T17:45:18.615Z,103519.67
2023-01-25T17:47:32.792Z,103524.33
2023-01-25T17:49:46.173Z,103521.00
2023-01-25T17:51:59.081Z,103522.76
2023-01-25T17:54:11.832Z,103526.46
2023-01-25T17:56:24.581Z,103521.52
2023-01-25T17:58:38.402Z,103530.23
2023-01-25T18:00:52.455Z,103532.08
2023-01-25T18:03:06.749Z,103537.27
2023-01-25T18:05:19.580Z,103538.08
2023-01-25T18:07:32.924Z,103535.30
2023-01-25T18:09:45.456Z,103533.61
2023-01-25T18:11:58.072Z,103536.85
2023-01-25T18:14:13.688Z,103537.32
2023-01-25T18:16:27.953Z,103534.98
2023-01-25T18:18:41.164Z,103536.63
2023-01-25T18:20:53.848Z,103535.92
2023-01-25T18:23:06.492Z,103536.26
2023-01-25T18:25:37.289Z,103539.77
2023-01-25T18:27:50.276Z,103542.92
2023-01-25T18:30:10.399Z,103546.23
2023-01-25T18:32:23.639Z,103544.55
2023-01-25T18:34:36.803Z,103548.39
2023-01-25T18:36:49.845Z,103550.67
2023-01-25T18:39:02.584Z,103551.29
2023-01-25T18:41:15.525Z,103549.75
2023-01-25T18:43:29.231Z,103551.82
2023-01-25T18:45:42.572Z,103554.78
2023-01-25T18:47:55.451Z,103556.54
2023-01-25T18:50:08.784Z,103556.81
2023-01-25T18:52:22.132Z,103553.17
2023-01-25T18:54:34.712Z,103560.20
2023-01-25T18:56:47.583Z,103554.09
2023-01-25T18:59:01.444Z,103549.89
2023-01-25T19:01:17.309Z,103547.48
2023-01-25T19:03:31.526Z,103541.33
2023-01-25T19:05:44.375Z,103536.43
2023-01-25T19:07:56.965Z,103539.33
2023-01-25T19:10:10.227Z,103542.83
2023-01-25T19:12:23.012Z,103537.27
2023-01-25T19:14:35.747Z,103541.65
2023-01-25T19:16:48.380Z,103543.10
2023-01-25T19:19:01.111Z,103544.20
2023-01-25T19:21:16.069Z,103539.56
2023-01-25T19:23:28.907Z,103536.12
2023-01-25T19:25:41.539Z,103534.70
2023-01-25T19:27:54.438Z,103534.27
2023-01-25T19:30:07.265Z,103535.54
2023-01-25T19:32:19.843Z,103537.81
2023-01-25T19:34:32.742Z,103539.65
2023-01-25T19:36:51.132Z,103540.86
2023-01-25T19:39:05.104Z,103535.75
2023-01-25T19:41:22.499Z,103539.56
2023-01-25T19:46:28.781Z,103537.08
2023-01-25T19:48:57.054Z,103529.29
2023-01-25T19:51:24.871Z,103527.43
2023-01-25T19:53:50.772Z,103522.30
2023-01-25T19:56:17.524Z,103516.13
2023-01-25T19:58:52.291Z,103517.06
2023-01-25T20:01:17.993Z,103516.16
2023-01-25T20:03:32.942Z,103514.63
2023-01-25T20:06:08.259Z,103509.23
2023-01-25T20:08:34.461Z,103508.25
2023-01-25T20:11:13.506Z,103502.46
2023-01-25T20:13:26.237Z,103503.02
2023-01-25T20:15:38.725Z,103499.15
2023-01-25T20:17:52.572Z,103496.09
2023-01-25T20:20:06.485Z,103493.09
2023-01-25T20:22:19.639Z,103488.94
2023-01-25T20:24:32.506Z,103492.83
2023-01-25T20:26:45.683Z,103488.02
2023-01-25T20:29:00.287Z,103485.34
2023-01-25T20:31:24.425Z,103481.30
2023-01-25T20:33:37.349Z,103479.23
2023-01-25T20:35:51.236Z,103477.17
2023-01-25T20:38:03.987Z,103475.77
2023-01-25T20:40:19.111Z,103477.00
2023-01-25T20:42:31.993Z,103470.89
2023-01-25T20:44:44.645Z,103467.61
2023-01-25T20:46:58.342Z,103461.73
2023-01-25T20:49:14.752Z,103458.45
2023-01-25T20:51:27.927Z,103465.93
2023-01-25T20:53:41.287Z,103467.73
2023-01-25T20:56:00.728Z,103471.27
2023-01-25T20:58:13.737Z,103468.16
2023-01-25T21:00:27.355Z,103462.02
2023-01-25T21:02:40.748Z,103461.36
2023-01-25T21:04:53.698Z,103459.11
2023-01-25T21:07:06.407Z,103456.75
2023-01-25T21:09:19.179Z,103450.27
2023-01-25T21:11:32.442Z,103450.16
2023-01-25T21:13:45.530Z,103443.48
2023-01-25T21:16:11.211Z,103442.41
2023-01-25T21:18:24.630Z,103440.33
2023-01-25T21:20:37.512Z,103437.69
2023-01-25T21:22:50.141Z,103432.68
2023-01-25T21:25:02.679Z,103431.91
2023-01-25T21:27:15.665Z,103424.93
2023-01-25T21:29:28.576Z,103429.78
2023-01-25T21:31:43.566Z,103430.70
2023-01-25T21:33:58.418Z,103430.97
2023-01-25T21:36:13.750Z,103419.62
2023-01-25T21:38:26.863Z,103419.19
2023-01-25T21:40:39.500Z,103419.89
2023-01-25T21:42:52.949Z,103412.86
2023-01-25T21:45:22.175Z,103412.47
2023-01-25T21:47:38.061Z,103409.73
2023-01-25T21:50:07.138Z,103404.91
2023-01-25T21:52:19.615Z,103399.02
2023-01-25T21:54:33.695Z,103396.84
2023-01-25T21:56:46.989Z,103391.42
2023-01-25T21:59:00.085Z,103388.76
2023-01-25T22:01:12.829Z,103380.29
2023-01-25T22:03:25.635Z,103374.61
2023-01-25T22:05:38.375Z,103374.77
2023-01-25T22:07:50.910Z,103376.30
2023-01-25T22:10:03.995Z,103377.08
2023-01-25T22:12:16.676Z,103372.54
2023-01-25T22:14:30.547Z,103375.44
2023-01-25T22:16:43.108Z,103368.73
2023-01-25T22:18:56.340Z,103376.47
2023-01-25T22:21:11.337Z,103378.66
2023-01-25T22:23:24.305Z,103383.13
2023-01-25T22:25:37.190Z,103383.13
2023-01-25T22:28:02.438Z,103380.30
2023-01-25T22:30:17.396Z,103377.94
2023-01-25T22:32:30.101Z,103373.41
2023-01-25T22:34:43.061Z,103373.64
2023-01-25T22:36:55.484Z,103372.42
2023-01-25T22:39:08.378Z,103374.67
2023-01-25T22:41:22.625Z,103378.09
2023-01-25T22:43:35.643Z,103378.23
2023-01-25T22:45:55.243Z,103380.84
2023-01-25T22:48:07.895Z,103383.14
2023-01-25T22:50:21.752Z,103379.09
2023-01-25T22:52:34.575Z,103383.71
2023-01-25T22:54:47.795Z,103384.15
2023-01-25T22:57:01.725Z,103383.61
2023-01-25T22:59:19.903Z,103384.86
2023-01-25T23:01:34.347Z,103384.25
2023-01-25T23:03:46.946Z,103387.38
2023-01-25T23:06:07.292Z,103387.62
2023-01-25T23:08:19.892Z,103391.55
2023-01-25T23:10:32.586Z,103393.73
2023-01-25T23:12:45.574Z,103392.91
2023-01-25T23:15:00.211Z,103389.38
2023-01-25T23:17:29.804Z,103389.75
2023-01-25T23:19:42.962Z,103381.48
2023-01-25T23:21:55.443Z,103383.71
2023-01-25T23:24:08.995Z,103384.10
2023-01-25T23:26:22.121Z,103384.86
2023-01-25T23:28:34.827Z,103389.34
2023-01-25T23:30:47.671Z,103391.84
2023-01-25T23:33:00.667Z,103391.39
2023-01-25T23:35:14.052Z,103386.20
2023-01-25T23:37:26.788Z,103384.23
2023-01-25T23:39:39.432Z,103380.08
2023-01-25T23:41:53.480Z,103375.11
2023-01-25T23:44:06.445Z,103375.45
2023-01-25T23:46:20.023Z,103371.54
2023-01-25T23:48:33.482Z,103372.50
2023-01-25T23:50:46.260Z,103380.47
2023-01-25T23:52:58.984Z,103379.32
2023-01-25T23:55:12.767Z,103378.88
2023-01-25T23:57:25.214Z,103371.88
2023-01-25T23:59:39.233Z,103377.08
